createdAt,value
2019-01-21T00:00:36.500Z,101254.36
2019-01-21T00:01:40.280Z,101265.06
2019-01-21T00:02:43.820Z,101266.95
2019-01-21T00:03:47.584Z,101267.23
2019-01-21T00:04:51.073Z,101264.50
2019-01-21T00:05:54.775Z,101269.72
2019-01-21T00:06:58.377Z,101272.45
2019-01-21T00:08:01.924Z,101279.03
2019-01-21T00:09:07.118Z,101274.66
2019-01-21T00:10:10.685Z,101270.56
2019-01-21T00:11:14.273Z,101274.95
2019-01-21T00:12:17.790Z,101274.14
2019-01-21T00:13:21.287Z,101269.22
2019-01-21T00:14:24.778Z,101269.77
2019-01-21T00:15:28.446Z,101270.87
2019-01-21T00:16:32.105Z,101266.77
2019-01-21T00:17:35.612Z,101266.80
2019-01-21T00:18:39.168Z,101266.80
2019-01-21T00:19:42.731Z,101271.45
2019-01-21T00:20:46.309Z,101271.19
2019-01-21T00:21:49.832Z,101265.45
2019-01-21T00:22:53.357Z,101272.30
2019-01-21T00:23:57.064Z,101269.56
2019-01-21T00:25:00.557Z,101261.59
2019-01-21T00:26:04.215Z,101268.19
2019-01-21T00:27:07.889Z,101261.63
2019-01-21T00:28:11.373Z,101263.00
2019-01-21T00:29:14.885Z,101260.26
2019-01-21T00:30:18.636Z,101261.36
2019-01-21T00:31:22.270Z,101256.44
2019-01-21T00:32:25.789Z,101257.55
2019-01-21T00:33:29.302Z,101254.25
2019-01-21T00:34:32.957Z,101260.84
2019-01-21T00:35:36.546Z,101264.13
2019-01-21T00:36:40.044Z,101255.41
2019-01-21T00:37:43.672Z,101267.16
2019-01-21T00:38:47.272Z,101265.52
2019-01-21T00:39:50.833Z,101262.52
2019-01-21T00:40:54.488Z,101266.63
2019-01-21T00:41:57.999Z,101261.44
2019-01-21T00:43:01.594Z,101263.36
2019-01-21T00:44:05.326Z,101264.47
2019-01-21T00:45:09.262Z,101255.99
2019-01-21T00:46:12.835Z,101261.47
2019-01-21T00:47:16.493Z,101254.63
2019-01-21T00:48:20.090Z,101250.51
2019-01-21T00:49:23.605Z,101255.98
2019-01-21T00:50:27.253Z,101253.80
2019-01-21T00:51:30.833Z,101254.09
2019-01-21T00:52:34.353Z,101256.01
2019-01-21T00:53:37.853Z,101261.22
2019-01-21T00:54:41.470Z,101258.48
2019-01-21T00:55:45.052Z,101264.51
2019-01-21T00:56:48.601Z,101265.61
2019-01-21T00:57:52.256Z,101262.90
2019-01-21T00:58:55.778Z,101268.64
2019-01-21T00:59:59.344Z,101267.27
2019-01-21T01:01:02.999Z,101268.38
2019-01-21T01:02:06.629Z,101270.84
2019-01-21T01:03:10.377Z,101268.95
2019-01-21T01:04:14.079Z,101273.32
2019-01-21T01:05:18.301Z,101273.05
2019-01-21T01:06:21.895Z,101268.69
2019-01-21T01:07:25.408Z,101275.53
2019-01-21T01:08:28.975Z,101281.00
2019-01-21T01:09:32.509Z,101279.33
2019-01-21T01:10:36.016Z,101280.70
2019-01-21T01:11:39.698Z,101280.44
2019-01-21T01:12:43.450Z,101285.65
2019-01-21T01:13:47.000Z,101286.47
2019-01-21T01:14:50.600Z,101284.56
2019-01-21T01:15:54.099Z,101287.59
2019-01-21T01:16:57.706Z,101288.14
2019-01-21T01:18:01.270Z,101289.80
2019-01-21T01:19:04.871Z,101288.69
2019-01-21T01:20:11.821Z,101292.80
2019-01-21T01:21:15.379Z,101292.53
2019-01-21T01:22:18.938Z,101296.38
2019-01-21T01:23:22.521Z,101299.66
2019-01-21T01:24:26.012Z,101298.29
2019-01-21T01:25:29.615Z,101296.11
2019-01-21T01:26:33.282Z,101300.21
2019-01-21T01:27:36.957Z,101302.42
2019-01-21T01:28:40.547Z,101301.31
2019-01-21T01:29:44.224Z,101301.87
2019-01-21T01:30:47.784Z,101302.97
2019-01-21T01:31:51.383Z,101302.42
2019-01-21T01:32:54.986Z,101304.63
2019-01-21T01:33:58.487Z,101304.63
2019-01-21T01:35:01.987Z,101307.36
2019-01-21T01:36:05.763Z,101307.63
2019-01-21T01:37:09.342Z,101303.52
2019-01-21T01:39:15.475Z,101299.97
2019-01-21T01:40:19.248Z,101299.41
2019-01-21T01:41:22.822Z,101296.41
2019-01-21T01:42:26.455Z,101293.95
2019-01-21T01:43:30.107Z,101302.70
2019-01-21T01:44:33.586Z,101297.23
2019-01-21T01:45:37.330Z,101295.05
2019-01-21T01:46:40.977Z,101303.80
2019-01-21T01:47:45.107Z,101302.98
2019-01-21T01:48:48.887Z,101296.15
2019-01-21T01:49:52.551Z,101304.36
2019-01-21T01:50:56.474Z,101302.69
2019-01-21T01:52:00.062Z,101296.70
2019-01-21T01:53:03.805Z,101302.42
2019-01-21T01:54:07.461Z,101294.22
2019-01-21T01:55:11.703Z,101292.03
2019-01-21T01:56:15.262Z,101293.69
2019-01-21T01:57:18.953Z,101294.78
2019-01-21T01:58:22.418Z,101296.70
2019-01-21T01:59:26.045Z,101296.44
2019-01-21T02:00:29.696Z,101305.18
2019-01-21T02:01:33.260Z,101294.80
2019-01-21T02:02:36.843Z,101294.54
2019-01-21T02:03:40.492Z,101298.37
2019-01-21T02:04:44.079Z,101302.48
2019-01-21T02:05:47.648Z,101305.77
2019-01-21T02:06:51.621Z,101300.30
2019-01-21T02:07:55.702Z,101304.69
2019-01-21T02:08:59.419Z,101301.41
2019-01-21T02:10:03.366Z,101296.48
2019-01-21T02:11:06.946Z,101308.23
2019-01-21T02:12:10.604Z,101305.23
2019-01-21T02:13:14.295Z,101298.13
2019-01-21T02:14:18.847Z,101299.50
2019-01-21T02:15:22.509Z,101300.88
2019-01-21T02:16:26.085Z,101297.05
2019-01-21T02:17:29.743Z,101297.60
2019-01-21T02:18:33.353Z,101304.95
2019-01-21T02:19:39.889Z,101304.14
2019-01-21T02:20:45.819Z,101305.24
2019-01-21T02:21:51.270Z,101307.98
2019-01-21T02:22:55.605Z,101308.27
2019-01-21T02:24:02.209Z,101312.37
2019-01-21T02:25:07.253Z,101313.19
2019-01-21T02:26:13.805Z,101309.62
2019-01-21T02:27:19.749Z,101312.37
2019-01-21T02:28:29.311Z,101318.66
2019-01-21T02:29:44.365Z,101314.28
2019-01-21T02:30:56.553Z,101312.65
2019-01-21T02:32:34.699Z,101310.48
2019-01-21T02:33:57.453Z,101315.94
2019-01-21T02:35:15.962Z,101319.22
2019-01-21T02:36:22.806Z,101315.69
2019-01-21T02:37:32.448Z,101320.34
2019-01-21T02:38:53.772Z,101318.16
2019-01-21T02:40:16.880Z,101320.63
2019-01-21T02:41:23.454Z,101320.36
2019-01-21T02:42:44.947Z,101322.83
2019-01-21T02:44:07.536Z,101320.91
2019-01-21T02:45:45.746Z,101321.45
2019-01-21T02:46:55.142Z,101317.09
2019-01-21T02:48:07.633Z,101313.25
2019-01-21T02:49:14.201Z,101311.32
2019-01-21T02:50:26.606Z,101310.50
2019-01-21T02:51:38.893Z,101312.69
2019-01-21T02:53:00.166Z,101316.25
2019-01-21T02:54:24.584Z,101312.98
2019-01-21T02:55:43.005Z,101317.09
2019-01-21T02:56:55.611Z,101324.76
2019-01-21T02:58:25.882Z,101323.39
2019-01-21T02:59:51.694Z,101316.28
2019-01-21T03:01:03.934Z,101314.66
2019-01-21T03:02:22.194Z,101311.65
2019-01-21T03:03:46.781Z,101310.28
2019-01-21T03:05:09.698Z,101311.38
2019-01-21T03:06:16.264Z,101312.75
2019-01-21T03:07:37.776Z,101311.67
2019-01-21T03:09:14.362Z,101313.03
2019-01-21T03:10:20.913Z,101314.95
2019-01-21T03:11:42.253Z,101317.69
2019-01-21T03:12:57.501Z,101312.50
2019-01-21T03:14:09.593Z,101308.40
2019-01-21T03:15:21.933Z,101314.12
2019-01-21T03:16:33.976Z,101318.22
2019-01-21T03:17:48.713Z,101313.30
2019-01-21T03:19:10.262Z,101318.50
2019-01-21T03:20:45.033Z,101315.77
2019-01-21T03:22:12.344Z,101321.23
2019-01-21T03:23:27.839Z,101321.48
2019-01-21T03:24:42.997Z,101321.48
2019-01-21T03:26:18.191Z,101325.58
2019-01-21T03:27:39.727Z,101318.48
2019-01-21T03:28:46.281Z,101321.77
2019-01-21T03:30:24.007Z,101325.59
2019-01-21T03:31:30.568Z,101332.98
2019-01-21T03:32:42.718Z,101327.80
2019-01-21T03:33:58.179Z,101332.45
2019-01-21T03:35:07.288Z,101334.91
2019-01-21T03:36:36.294Z,101331.91
2019-01-21T03:37:42.840Z,101325.91
2019-01-21T03:39:13.311Z,101325.91
2019-01-21T03:40:22.878Z,101325.64
2019-01-21T03:41:35.120Z,101320.72
2019-01-21T03:42:44.343Z,101317.44
2019-01-21T03:44:20.841Z,101322.06
2019-01-21T03:45:33.371Z,101321.80
2019-01-21T03:46:48.930Z,101322.62
2019-01-21T03:47:55.441Z,101327.00
2019-01-21T03:49:02.036Z,101323.72
2019-01-21T03:50:32.767Z,101324.81
2019-01-21T03:52:00.039Z,101320.16
2019-01-21T03:53:09.529Z,101321.27
2019-01-21T03:54:19.316Z,101317.72
2019-01-21T03:55:23.344Z,101321.00
2019-01-21T03:56:32.623Z,101320.73
2019-01-21T03:57:39.221Z,101315.81
2019-01-21T03:58:48.718Z,101321.55
2019-01-21T03:59:58.279Z,101314.45
2019-01-21T04:01:31.854Z,101316.62
2019-01-21T04:02:47.034Z,101314.45
2019-01-21T04:04:02.150Z,101320.19
2019-01-21T04:05:11.477Z,101318.55
2019-01-21T04:06:18.158Z,101321.29
2019-01-21T04:07:36.399Z,101320.75
2019-01-21T04:08:42.970Z,101321.02
2019-01-21T04:10:04.672Z,101320.75
2019-01-21T04:11:29.127Z,101321.30
2019-01-21T04:12:36.077Z,101325.68
2019-01-21T04:13:42.723Z,101322.64
2019-01-21T04:15:04.248Z,101319.91
2019-01-21T04:16:13.613Z,101323.75
2019-01-21T04:17:54.675Z,101322.38
2019-01-21T04:19:04.052Z,101318.01
2019-01-21T04:20:26.877Z,101319.11
2019-01-21T04:21:39.160Z,101322.11
2019-01-21T04:22:57.762Z,101314.47
2019-01-21T04:24:10.181Z,101313.66
2019-01-21T04:25:22.277Z,101311.20
2019-01-21T04:26:54.146Z,101310.92
2019-01-21T04:28:09.558Z,101306.83
2019-01-21T04:29:32.512Z,101299.46
2019-01-21T04:30:41.971Z,101305.19
2019-01-21T04:31:51.296Z,101308.73
2019-01-21T04:33:14.366Z,101310.38
2019-01-21T04:34:20.939Z,101310.38
2019-01-21T04:35:39.327Z,101314.19
2019-01-21T04:37:00.751Z,101311.73
2019-01-21T04:38:07.337Z,101314.18
2019-01-21T04:39:31.687Z,101318.30
2019-01-21T04:40:46.890Z,101314.75
2019-01-21T04:42:11.236Z,101315.84
2019-01-21T04:43:17.782Z,101313.38
2019-01-21T04:44:42.355Z,101315.56
2019-01-21T04:45:54.720Z,101313.65
2019-01-21T04:47:16.112Z,101319.94
2019-01-21T04:48:34.520Z,101309.00
2019-01-21T04:49:41.053Z,101310.92
2019-01-21T04:51:08.134Z,101312.83
2019-01-21T04:52:14.699Z,101307.09
2019-01-21T04:53:30.662Z,101305.73
2019-01-21T04:54:55.473Z,101305.98
2019-01-21T04:56:07.672Z,101313.36
2019-01-21T04:57:14.322Z,101311.99
2019-01-21T04:58:23.926Z,101312.55
2019-01-21T04:59:33.537Z,101312.27
2019-01-21T05:00:48.812Z,101319.92
2019-01-21T05:02:06.942Z,101321.84
2019-01-21T05:03:25.123Z,101316.09
2019-01-21T05:04:40.730Z,101320.22
2019-01-21T05:05:56.130Z,101319.66
2019-01-21T05:07:20.929Z,101315.81
2019-01-21T05:08:43.703Z,101320.44
2019-01-21T05:10:10.941Z,101317.17
2019-01-21T05:11:41.265Z,101320.70
2019-01-21T05:13:06.120Z,101327.78
2019-01-21T05:14:24.265Z,101322.02
2019-01-21T05:15:42.768Z,101324.13
2019-01-21T05:16:52.157Z,101314.49
2019-01-21T05:18:16.730Z,101314.41
2019-01-21T05:19:34.848Z,101315.97
2019-01-21T05:21:05.816Z,101318.27
2019-01-21T05:22:24.719Z,101317.34
2019-01-21T05:23:31.276Z,101320.50
2019-01-21T05:24:58.730Z,101313.80
2019-01-21T05:26:08.213Z,101319.16
2019-01-21T05:27:23.591Z,101320.61
2019-01-21T05:28:47.987Z,101325.77
2019-01-21T05:30:00.206Z,101321.58
2019-01-21T05:31:09.641Z,101321.70
2019-01-21T05:32:27.966Z,101318.28
2019-01-21T05:33:37.403Z,101310.24
2019-01-21T05:34:49.767Z,101321.62
2019-01-21T05:36:04.129Z,101311.42
2019-01-21T05:37:33.091Z,101318.33
2019-01-21T05:39:08.441Z,101322.31
2019-01-21T05:40:20.904Z,101319.78
2019-01-21T05:41:36.296Z,101323.56
2019-01-21T05:43:01.047Z,101323.80
2019-01-21T05:44:40.601Z,101318.19
2019-01-21T05:45:52.999Z,101325.05
2019-01-21T05:47:21.835Z,101321.41
2019-01-21T05:48:53.752Z,101316.47
2019-01-21T05:50:18.989Z,101319.11
2019-01-21T05:51:28.486Z,101310.44
2019-01-21T05:52:46.989Z,101315.09
2019-01-21T05:54:20.710Z,101314.28
2019-01-21T05:55:27.298Z,101315.34
2019-01-21T05:56:57.824Z,101320.73
2019-01-21T05:58:23.683Z,101329.19
2019-01-21T05:59:33.180Z,101323.70
2019-01-21T06:00:55.078Z,101330.80
2019-01-21T06:02:10.599Z,101334.27
2019-01-21T06:03:23.139Z,101330.05
2019-01-21T06:04:35.460Z,101330.30
2019-01-21T06:05:57.184Z,101332.48
2019-01-21T06:07:29.023Z,101330.75
2019-01-21T06:08:54.636Z,101320.02
2019-01-21T06:10:04.574Z,101323.12
2019-01-21T06:11:27.704Z,101324.19
2019-01-21T06:12:43.085Z,101323.62
2019-01-21T06:13:55.346Z,101323.58
2019-01-21T06:15:20.022Z,101314.16
2019-01-21T06:16:26.670Z,101320.48
2019-01-21T06:17:45.112Z,101314.98
2019-01-21T06:18:57.297Z,101310.22
2019-01-21T06:20:18.945Z,101318.22
2019-01-21T06:21:34.230Z,101304.42
2019-01-21T06:22:43.470Z,101305.23
2019-01-21T06:24:08.011Z,101308.74
2019-01-21T06:25:20.436Z,101309.25
2019-01-21T06:26:32.769Z,101312.00
2019-01-21T06:27:39.340Z,101300.08
2019-01-21T06:29:00.679Z,101303.63
2019-01-21T06:30:22.099Z,101307.44
2019-01-21T06:31:37.656Z,101309.53
2019-01-21T06:33:00.757Z,101312.53
2019-01-21T06:34:07.333Z,101315.48
2019-01-21T06:35:19.482Z,101315.66
2019-01-21T06:36:26.025Z,101317.91
2019-01-21T06:37:35.301Z,101320.85
2019-01-21T06:38:59.619Z,101323.85
2019-01-21T06:40:14.946Z,101326.05
2019-01-21T06:41:53.024Z,101334.16
2019-01-21T06:43:02.064Z,101328.13
2019-01-21T06:44:26.358Z,101331.05
2019-01-21T06:45:53.227Z,101334.90
2019-01-21T06:47:08.625Z,101335.18
2019-01-21T06:48:26.776Z,101336.61
2019-01-21T06:49:54.382Z,101334.65
2019-01-21T06:51:33.671Z,101334.36
2019-01-21T06:52:57.862Z,101340.09
2019-01-21T06:54:13.091Z,101334.28
2019-01-21T06:55:54.134Z,101329.91
2019-01-21T06:57:17.033Z,101339.67
2019-01-21T06:58:38.217Z,101340.22
2019-01-21T06:59:50.505Z,101336.90
2019-01-21T07:01:08.738Z,101338.78
2019-01-21T07:02:30.207Z,101334.09
2019-01-21T07:03:53.041Z,101339.53
2019-01-21T07:05:14.403Z,101335.72
2019-01-21T07:06:37.078Z,101336.59
2019-01-21T07:07:43.623Z,101343.66
2019-01-21T07:08:53.172Z,101341.73
2019-01-21T07:10:02.753Z,101349.88
2019-01-21T07:11:27.031Z,101342.48
2019-01-21T07:12:33.587Z,101352.06
2019-01-21T07:14:05.511Z,101352.06
2019-01-21T07:15:20.962Z,101352.55
2019-01-21T07:16:35.772Z,101361.13
2019-01-21T07:17:42.503Z,101361.86
2019-01-21T07:19:10.971Z,101360.93
2019-01-21T07:20:27.037Z,101359.48
2019-01-21T07:21:45.314Z,101369.94
2019-01-21T07:23:08.272Z,101368.81
2019-01-21T07:24:38.684Z,101370.09
2019-01-21T07:25:50.978Z,101371.94
2019-01-21T07:27:12.507Z,101374.34
2019-01-21T07:28:22.107Z,101368.47
2019-01-21T07:29:53.995Z,101371.31
2019-01-21T07:31:12.372Z,101371.17
2019-01-21T07:32:21.438Z,101367.23
2019-01-21T07:33:39.775Z,101369.37
2019-01-21T07:35:07.052Z,101368.47
2019-01-21T07:36:25.773Z,101364.55
2019-01-21T07:37:37.761Z,101367.70
2019-01-21T07:38:44.426Z,101364.00
2019-01-21T07:40:17.642Z,101365.23
2019-01-21T07:41:26.901Z,101364.09
2019-01-21T07:42:45.469Z,101359.47
2019-01-21T07:43:54.880Z,101362.82
2019-01-21T07:45:15.467Z,101361.63
2019-01-21T07:46:27.880Z,101357.97
2019-01-21T07:47:50.759Z,101357.09
2019-01-21T07:49:17.631Z,101364.61
2019-01-21T07:50:38.880Z,101361.81
2019-01-21T07:52:01.992Z,101369.19
2019-01-21T07:53:20.874Z,101364.45
2019-01-21T07:54:30.609Z,101370.49
2019-01-21T07:55:39.777Z,101368.50
2019-01-21T07:57:13.677Z,101370.81
2019-01-21T07:58:25.946Z,101375.17
2019-01-21T07:59:41.294Z,101376.24
2019-01-21T08:00:47.832Z,101388.31
2019-01-21T08:02:11.585Z,101380.94
2019-01-21T08:03:23.772Z,101388.20
2019-01-21T08:04:38.904Z,101387.53
2019-01-21T08:05:57.595Z,101385.02
2019-01-21T08:07:10.443Z,101383.69
2019-01-21T08:08:19.911Z,101387.40
2019-01-21T08:09:29.387Z,101391.72
2019-01-21T08:10:38.471Z,101388.02
2019-01-21T08:11:50.678Z,101383.83
2019-01-21T08:13:18.344Z,101386.27
2019-01-21T08:14:24.912Z,101393.35
2019-01-21T08:15:34.595Z,101390.04
2019-01-21T08:17:00.522Z,101396.28
2019-01-21T08:18:18.780Z,101401.16
2019-01-21T08:19:43.661Z,101399.59
2019-01-21T08:21:05.484Z,101398.27
2019-01-21T08:22:34.183Z,101405.41
2019-01-21T08:23:43.771Z,101398.66
2019-01-21T08:25:11.567Z,101406.30
2019-01-21T08:26:27.336Z,101402.65
2019-01-21T08:27:39.843Z,101398.97
2019-01-21T08:28:49.527Z,101395.65
2019-01-21T08:29:59.146Z,101398.52
2019-01-21T08:31:31.377Z,101403.05
2019-01-21T08:33:08.986Z,101401.98
2019-01-21T08:34:27.205Z,101398.52
2019-01-21T08:35:42.923Z,101403.61
2019-01-21T08:36:55.447Z,101405.41
2019-01-21T08:38:04.732Z,101403.30
2019-01-21T08:39:30.725Z,101409.27
2019-01-21T08:40:56.956Z,101412.09
2019-01-21T08:42:12.323Z,101411.16
2019-01-21T08:43:21.724Z,101404.20
2019-01-21T08:45:01.129Z,101408.42
2019-01-21T08:46:42.103Z,101410.48
2019-01-21T08:48:06.424Z,101410.06
2019-01-21T08:49:30.935Z,101408.59
2019-01-21T08:50:40.135Z,101420.76
2019-01-21T08:52:05.420Z,101414.25
2019-01-21T08:53:23.931Z,101420.00
2019-01-21T08:54:42.150Z,101423.83
2019-01-21T08:55:54.701Z,101414.45
2019-01-21T08:57:04.582Z,101415.12
2019-01-21T08:58:20.198Z,101418.52
2019-01-21T08:59:35.531Z,101421.06
2019-01-21T09:00:53.694Z,101422.79
2019-01-21T09:02:00.277Z,101432.73
2019-01-21T09:03:14.508Z,101430.11
2019-01-21T09:04:24.125Z,101428.68
2019-01-21T09:05:33.587Z,101429.37
2019-01-21T09:06:40.170Z,101427.06
2019-01-21T09:07:58.424Z,101424.13
2019-01-21T09:09:13.810Z,101429.94
2019-01-21T09:10:20.357Z,101430.84
2019-01-21T09:11:53.201Z,101422.20
2019-01-21T09:13:16.020Z,101428.25
2019-01-21T09:14:28.481Z,101425.63
2019-01-21T09:15:41.160Z,101423.38
2019-01-21T09:16:53.364Z,101426.55
2019-01-21T09:18:05.683Z,101429.06
2019-01-21T09:19:30.107Z,101428.19
2019-01-21T09:21:00.488Z,101425.46
2019-01-21T09:22:15.858Z,101423.27
2019-01-21T09:23:22.450Z,101422.00
2019-01-21T09:24:29.098Z,101424.26
2019-01-21T09:25:56.632Z,101416.11
2019-01-21T09:27:23.903Z,101423.02
2019-01-21T09:28:33.097Z,101429.77
2019-01-21T09:29:42.422Z,101430.39
2019-01-21T09:30:54.859Z,101428.56
2019-01-21T09:32:13.229Z,101439.34
2019-01-21T09:33:48.267Z,101433.95
2019-01-21T09:34:57.693Z,101432.68
2019-01-21T09:36:16.136Z,101438.00
2019-01-21T09:37:31.853Z,101435.05
2019-01-21T09:38:44.517Z,101433.22
2019-01-21T09:39:59.913Z,101434.36
2019-01-21T09:41:21.394Z,101438.23
2019-01-21T09:42:39.429Z,101440.41
2019-01-21T09:43:48.749Z,101437.42
2019-01-21T09:44:58.085Z,101431.16
2019-01-21T09:46:13.519Z,101431.16
2019-01-21T09:47:15.957Z,101435.54
2019-01-21T09:48:18.398Z,101438.09
2019-01-21T09:49:20.808Z,101439.20
2019-01-21T09:50:24.911Z,101437.85
2019-01-21T09:51:28.743Z,101438.18
2019-01-21T09:52:32.464Z,101444.55
2019-01-21T09:53:36.314Z,101434.16
2019-01-21T09:54:40.030Z,101430.08
2019-01-21T09:55:46.878Z,101424.92
2019-01-21T09:56:52.054Z,101423.86
2019-01-21T09:58:07.241Z,101420.00
2019-01-21T09:59:11.266Z,101416.44
2019-01-21T10:00:17.960Z,101419.49
2019-01-21T10:01:22.113Z,101411.75
2019-01-21T10:02:28.720Z,101419.94
2019-01-21T10:03:33.060Z,101412.30
2019-01-21T10:04:39.968Z,101409.70
2019-01-21T10:05:46.564Z,101413.47
2019-01-21T10:06:53.315Z,101419.22
2019-01-21T10:08:08.962Z,101415.89
2019-01-21T10:09:18.374Z,101422.21
2019-01-21T10:10:44.246Z,101422.72
2019-01-21T10:11:56.345Z,101425.47
2019-01-21T10:13:14.612Z,101427.41
2019-01-21T10:14:24.505Z,101427.66
2019-01-21T10:15:33.839Z,101429.59
2019-01-21T10:16:54.978Z,101428.80
2019-01-21T10:18:13.425Z,101424.73
2019-01-21T10:19:35.084Z,101422.33
2019-01-21T10:20:44.317Z,101418.20
2019-01-21T10:21:53.489Z,101422.33
2019-01-21T10:23:14.732Z,101423.20
2019-01-21T10:24:33.126Z,101421.77
2019-01-21T10:25:51.582Z,101426.16
2019-01-21T10:26:58.114Z,101415.35
2019-01-21T10:28:10.477Z,101418.10
2019-01-21T10:29:37.641Z,101418.66
2019-01-21T10:30:52.833Z,101421.41
2019-01-21T10:32:14.039Z,101422.53
2019-01-21T10:33:35.210Z,101421.72
2019-01-21T10:34:56.459Z,101420.65
2019-01-21T10:36:11.808Z,101415.20
2019-01-21T10:37:44.888Z,101416.06
2019-01-21T10:39:10.903Z,101407.30
2019-01-21T10:40:23.208Z,101405.42
2019-01-21T10:41:32.638Z,101398.25
2019-01-21T10:42:45.095Z,101400.68
2019-01-21T10:44:03.595Z,101399.36
2019-01-21T10:45:18.749Z,101397.57
2019-01-21T10:46:43.204Z,101400.02
2019-01-21T10:48:07.431Z,101395.58
2019-01-21T10:49:28.784Z,101399.38
2019-01-21T10:50:38.444Z,101400.76
2019-01-21T10:52:02.736Z,101399.09
2019-01-21T10:53:23.968Z,101396.09
2019-01-21T10:54:33.392Z,101399.38
2019-01-21T10:55:54.867Z,101390.64
2019-01-21T10:57:13.501Z,101385.95
2019-01-21T10:58:28.879Z,101382.19
2019-01-21T10:59:44.252Z,101386.56
2019-01-21T11:01:12.114Z,101389.06
2019-01-21T11:02:42.239Z,101381.93
2019-01-21T11:03:54.762Z,101386.06
2019-01-21T11:05:01.334Z,101377.75
2019-01-21T11:06:24.203Z,101372.30
2019-01-21T11:07:47.172Z,101374.44
2019-01-21T11:08:53.713Z,101366.24
2019-01-21T11:10:24.314Z,101369.45
2019-01-21T11:11:58.957Z,101370.57
2019-01-21T11:13:16.785Z,101358.50
2019-01-21T11:14:26.141Z,101365.13
2019-01-21T11:15:38.299Z,101367.31
2019-01-21T11:16:53.274Z,101356.92
2019-01-21T11:18:14.801Z,101370.67
2019-01-21T11:19:42.315Z,101362.78
2019-01-21T11:20:54.657Z,101363.62
2019-01-21T11:22:01.222Z,101358.37
2019-01-21T11:23:27.278Z,101353.48
2019-01-21T11:24:33.814Z,101357.28
2019-01-21T11:25:58.247Z,101356.92
2019-01-21T11:27:19.492Z,101357.23
2019-01-21T11:28:28.944Z,101354.68
2019-01-21T11:29:41.345Z,101350.50
2019-01-21T11:30:53.476Z,101351.06
2019-01-21T11:32:14.643Z,101342.05
2019-01-21T11:33:33.018Z,101342.61
2019-01-21T11:34:57.436Z,101337.72
2019-01-21T11:36:06.625Z,101338.28
2019-01-21T11:37:29.362Z,101335.86
2019-01-21T11:38:47.554Z,101328.98
2019-01-21T11:40:15.070Z,101330.10
2019-01-21T11:41:30.503Z,101329.84
2019-01-21T11:42:39.853Z,101328.42
2019-01-21T11:43:49.116Z,101327.58
2019-01-21T11:45:14.144Z,101320.91
2019-01-21T11:46:26.249Z,101315.66
2019-01-21T11:47:50.169Z,101319.48
2019-01-21T11:49:12.826Z,101312.29
2019-01-21T11:50:31.511Z,101315.30
2019-01-21T11:51:40.696Z,101313.41
2019-01-21T11:53:05.169Z,101311.78
2019-01-21T11:54:27.661Z,101317.03
2019-01-21T11:55:43.379Z,101317.65
2019-01-21T11:56:55.514Z,101317.67
2019-01-21T11:58:27.068Z,101315.23
2019-01-21T11:59:39.545Z,101316.86
2019-01-21T12:00:52.155Z,101316.58
2019-01-21T12:02:10.444Z,101307.48
2019-01-21T12:03:23.511Z,101311.28
2019-01-21T12:04:45.923Z,101315.66
2019-01-21T12:05:52.282Z,101314.53
2019-01-21T12:07:18.405Z,101313.41
2019-01-21T12:08:39.584Z,101312.03
2019-01-21T12:09:46.112Z,101319.42
2019-01-21T12:11:07.546Z,101313.41
2019-01-21T12:12:14.080Z,101310.41
2019-01-21T12:13:32.585Z,101306.03
2019-01-21T12:14:53.855Z,101304.70
2019-01-21T12:16:06.096Z,101305.02
2019-01-21T12:17:37.980Z,101302.84
2019-01-21T12:18:58.955Z,101297.66
2019-01-21T12:20:17.605Z,101297.09
2019-01-21T12:21:40.767Z,101294.09
2019-01-21T12:23:05.003Z,101305.85
2019-01-21T12:24:11.549Z,101310.46
2019-01-21T12:25:26.643Z,101307.77
2019-01-21T12:26:50.974Z,101306.64
2019-01-21T12:28:00.650Z,101300.53
2019-01-21T12:29:32.349Z,101298.59
2019-01-21T12:30:44.867Z,101295.59
2019-01-21T12:32:00.182Z,101294.72
2019-01-21T12:33:28.865Z,101290.90
2019-01-21T12:34:37.998Z,101283.59
2019-01-21T12:36:02.769Z,101284.21
2019-01-21T12:37:09.313Z,101280.70
2019-01-21T12:38:47.545Z,101281.57
2019-01-21T12:39:57.146Z,101278.82
2019-01-21T12:41:21.693Z,101275.00
2019-01-21T12:42:29.263Z,101272.50
2019-01-21T12:43:50.664Z,101273.83
2019-01-21T12:45:19.449Z,101274.08
2019-01-21T12:46:31.650Z,101272.65
2019-01-21T12:47:53.037Z,101266.59
2019-01-21T12:49:05.635Z,101270.72
2019-01-21T12:50:26.925Z,101269.59
2019-01-21T12:51:52.905Z,101269.34
2019-01-21T12:52:59.629Z,101266.03
2019-01-21T12:54:11.650Z,101265.21
2019-01-21T12:55:40.927Z,101270.46
2019-01-21T12:56:53.335Z,101258.14
2019-01-21T12:58:19.337Z,101268.58
2019-01-21T12:59:49.773Z,101269.95
2019-01-21T13:00:59.003Z,101267.20
2019-01-21T13:02:17.479Z,101263.33
2019-01-21T13:03:40.400Z,101267.66
2019-01-21T13:04:55.833Z,101265.89
2019-01-21T13:06:11.246Z,101260.39
2019-01-21T13:07:20.860Z,101261.26
2019-01-21T13:08:30.343Z,101257.13
2019-01-21T13:10:08.559Z,101255.50
2019-01-21T13:11:27.073Z,101250.28
2019-01-21T13:12:57.075Z,101260.22
2019-01-21T13:14:35.460Z,101248.40
2019-01-21T13:15:56.864Z,101244.33
2019-01-21T13:17:06.266Z,101237.82
2019-01-21T13:18:27.656Z,101243.37
2019-01-21T13:19:53.502Z,101236.81
2019-01-21T13:21:17.717Z,101231.89
2019-01-21T13:22:27.073Z,101224.52
2019-01-21T13:23:36.622Z,101221.52
2019-01-21T13:24:57.784Z,101224.46
2019-01-21T13:26:07.298Z,101220.06
2019-01-21T13:27:36.003Z,101213.52
2019-01-21T13:28:48.566Z,101215.14
2019-01-21T13:29:54.525Z,101214.89
2019-01-21T13:31:04.052Z,101210.27
2019-01-21T13:32:25.624Z,101213.02
2019-01-21T13:33:37.366Z,101210.06
2019-01-21T13:35:12.184Z,101209.25
2019-01-21T13:36:24.674Z,101206.61
2019-01-21T13:37:45.656Z,101210.99
2019-01-21T13:39:13.159Z,101211.58
2019-01-21T13:40:34.591Z,101211.06
2019-01-21T13:41:41.203Z,101211.69
2019-01-21T13:43:06.986Z,101207.70
2019-01-21T13:44:19.028Z,101215.11
2019-01-21T13:45:41.885Z,101219.48
2019-01-21T13:46:54.396Z,101210.94
2019-01-21T13:48:09.890Z,101214.64
2019-01-21T13:49:24.995Z,101209.64
2019-01-21T13:50:49.789Z,101205.07
2019-01-21T13:51:56.351Z,101206.30
2019-01-21T13:53:37.106Z,101201.90
2019-01-21T13:54:49.302Z,101202.94
2019-01-21T13:56:22.689Z,101199.69
2019-01-21T13:57:45.528Z,101201.88
2019-01-21T13:59:08.320Z,101192.27
2019-01-21T14:00:14.868Z,101193.40
2019-01-21T14:01:21.434Z,101191.77
2019-01-21T14:02:33.671Z,101191.27
2019-01-21T14:03:55.018Z,101185.27
2019-01-21T14:05:16.184Z,101186.08
2019-01-21T14:06:25.317Z,101183.08
2019-01-21T14:07:54.562Z,101179.26
2019-01-21T14:09:32.235Z,101177.27
2019-01-21T14:10:52.105Z,101181.33
2019-01-21T14:12:04.367Z,101179.14
2019-01-21T14:13:13.591Z,101180.52